Time;durP1;ratioP1;P1;durP2;ratioP2;P2;SDS_P1;SDS_P2;PMS_P1;PMS_P2;Temp;Humidity;BMP_temperature;BMP_pressure;BME280_temperature;BME280_humidity;BME280_pressure;Samples;Min_cycle;Max_cycle;Signal;HPM_P1;HPM_P2
2021/08/19 00:00:36;;;;;;;13.50;11.40;;;17.80;99.90;;;;;;5002946;28;20572;-61
2021/08/19 00:03:02;;;;;;;12.73;11.40;;;17.80;99.90;;;;;;5005126;28;20446;-62
2021/08/19 00:05:29;;;;;;;12.80;11.70;;;17.80;99.90;;;;;;5002307;28;20471;-62
2021/08/19 00:07:56;;;;;;;11.80;10.80;;;17.80;99.90;;;;;;5002283;28;20805;-61
2021/08/19 00:10:22;;;;;;;12.23;11.20;;;17.90;99.90;;;;;;5004625;28;20443;-62
2021/08/19 00:12:51;;;;;;;12.73;11.53;;;17.80;99.90;;;;;;5005459;28;20465;-63
2021/08/19 00:15:17;;;;;;;13.07;11.87;;;17.80;99.90;;;;;;5003262;28;20469;-61
2021/08/19 00:17:44;;;;;;;12.80;11.70;;;17.80;99.90;;;;;;5002172;28;20451;-64
2021/08/19 00:20:11;;;;;;;12.90;11.60;;;17.80;99.90;;;;;;5002770;28;20480;-61
2021/08/19 00:22:38;;;;;;;11.80;10.90;;;17.80;99.90;;;;;;5005128;28;20473;-62
2021/08/19 00:25:06;;;;;;;11.77;10.70;;;17.90;99.90;;;;;;5005054;28;20466;-63
2021/08/19 00:27:33;;;;;;;13.67;12.37;;;17.80;99.90;;;;;;5001654;28;20447;-64
2021/08/19 00:30:01;;;;;;;15.00;11.47;;;17.90;99.90;;;;;;4997263;28;20933;-64
2021/08/19 00:32:28;;;;;;;12.60;11.50;;;17.90;99.90;;;;;;5000863;28;20443;-64
2021/08/19 00:34:55;;;;;;;12.60;11.53;;;17.90;99.90;;;;;;5003621;28;20813;-64
2021/08/19 00:37:22;;;;;;;12.50;11.40;;;17.90;99.90;;;;;;5002413;28;20958;-63
2021/08/19 00:39:49;;;;;;;12.67;11.63;;;17.90;99.90;;;;;;5001873;28;20451;-65
2021/08/19 00:42:16;;;;;;;12.20;11.20;;;17.90;99.90;;;;;;5002894;28;20506;-64
2021/08/19 00:44:43;;;;;;;13.77;12.70;;;18.00;99.90;;;;;;5005011;28;20901;-63
2021/08/19 00:47:12;;;;;;;12.33;11.33;;;18.00;99.90;;;;;;5004022;28;20446;-63
2021/08/19 00:49:42;;;;;;;12.30;11.23;;;18.00;99.90;;;;;;5001592;28;20482;-63
2021/08/19 00:52:10;;;;;;;11.97;10.90;;;18.00;99.90;;;;;;4993247;28;20493;-61
2021/08/19 00:54:41;;;;;;;12.27;11.20;;;18.00;99.90;;;;;;4993686;28;20499;-62
2021/08/19 00:57:08;;;;;;;13.63;12.10;;;18.00;99.90;;;;;;5001466;28;20943;-60
2021/08/19 00:59:37;;;;;;;13.37;12.27;;;18.00;99.90;;;;;;4999729;28;20443;-61
2021/08/19 01:02:04;;;;;;;11.90;10.90;;;18.00;99.90;;;;;;5001141;28;20489;-61
2021/08/19 01:04:33;;;;;;;11.77;10.57;;;18.00;99.90;;;;;;5001177;28;20462;-64
2021/08/19 01:07:00;;;;;;;11.70;10.80;;;18.00;99.90;;;;;;5001184;28;20442;-63
2021/08/19 01:09:27;;;;;;;12.47;11.33;;;18.10;99.90;;;;;;4996343;28;20477;-61
2021/08/19 01:11:54;;;;;;;12.57;11.30;;;18.10;99.90;;;;;;5004235;28;20461;-62
2021/08/19 01:14:21;;;;;;;12.60;11.47;;;18.00;99.90;;;;;;5001857;28;20477;-61
2021/08/19 01:16:49;;;;;;;13.43;12.27;;;18.10;99.90;;;;;;5006483;28;20457;-61
2021/08/19 01:19:17;;;;;;;13.47;12.17;;;18.10;99.90;;;;;;4997404;28;20447;-61
2021/08/19 01:21:46;;;;;;;13.10;12.10;;;18.10;99.90;;;;;;5004015;28;20485;-63
2021/08/19 01:24:14;;;;;;;13.43;12.10;;;18.10;99.90;;;;;;5002706;28;20450;-61
2021/08/19 01:26:42;;;;;;;12.20;11.33;;;18.10;99.90;;;;;;5000903;28;20446;-61
2021/08/19 01:29:10;;;;;;;14.53;12.83;;;18.10;99.90;;;;;;5005764;28;20529;-62
2021/08/19 01:31:37;;;;;;;12.13;11.13;;;18.10;99.90;;;;;;5000437;28;20833;-62
2021/08/19 01:34:05;;;;;;;20.10;13.97;;;18.10;99.90;;;;;;5000506;28;20447;-62
2021/08/19 01:36:32;;;;;;;14.37;13.17;;;18.10;99.90;;;;;;5000437;28;20481;-62
2021/08/19 01:38:58;;;;;;;14.10;12.30;;;18.10;99.90;;;;;;5000685;28;20450;-61
2021/08/19 01:41:25;;;;;;;12.77;11.67;;;18.10;99.90;;;;;;5001077;28;20483;-63
2021/08/19 01:43:53;;;;;;;14.00;12.60;;;18.10;99.90;;;;;;5003213;28;20819;-61
2021/08/19 01:46:22;;;;;;;12.80;11.77;;;18.10;99.90;;;;;;4992365;28;20834;-62
2021/08/19 01:48:50;;;;;;;13.43;12.03;;;18.20;99.90;;;;;;5004466;28;20480;-62
2021/08/19 01:51:18;;;;;;;12.43;11.47;;;18.10;99.90;;;;;;4992569;28;20451;-61
2021/08/19 01:53:45;;;;;;;13.90;12.60;;;18.20;99.90;;;;;;4992621;28;20457;-61
2021/08/19 01:56:13;;;;;;;16.50;14.80;;;18.20;99.90;;;;;;4992501;28;20475;-62
2021/08/19 01:58:40;;;;;;;13.23;12.03;;;18.20;99.90;;;;;;5001683;28;20446;-61
2021/08/19 02:01:07;;;;;;;13.87;12.57;;;18.20;99.90;;;;;;5012115;28;20481;-62
2021/08/19 02:03:35;;;;;;;12.30;11.33;;;18.20;99.90;;;;;;5012044;28;20453;-60
2021/08/19 02:06:01;;;;;;;13.73;12.30;;;18.20;99.90;;;;;;5012129;28;20832;-62
2021/08/19 02:08:28;;;;;;;13.47;12.57;;;18.20;99.90;;;;;;5004408;28;21125;-62
2021/08/19 02:10:55;;;;;;;13.40;12.07;;;18.20;99.90;;;;;;4992357;28;20812;-61
2021/08/19 02:13:21;;;;;;;13.63;11.90;;;18.10;99.90;;;;;;4992375;28;20455;-63
2021/08/19 02:15:48;;;;;;;12.83;11.83;;;18.10;99.90;;;;;;4992322;28;20482;-61
2021/08/19 02:18:15;;;;;;;16.10;13.33;;;18.00;99.90;;;;;;4993876;28;20457;-61
2021/08/19 02:20:43;;;;;;;14.60;13.30;;;18.00;99.90;;;;;;5011842;28;20809;-61
2021/08/19 02:23:09;;;;;;;13.70;12.70;;;18.00;99.90;;;;;;5011777;28;20454;-61
2021/08/19 02:25:36;;;;;;;17.23;13.23;;;17.90;99.90;;;;;;5011810;28;20477;-62
2021/08/19 02:28:03;;;;;;;13.50;12.50;;;17.90;99.90;;;;;;5008035;28;20454;-61
2021/08/19 02:30:29;;;;;;;14.63;12.80;;;17.90;99.90;;;;;;4992260;28;20470;-63
2021/08/19 02:32:56;;;;;;;14.00;12.50;;;17.90;99.90;;;;;;4992019;28;20435;-61
2021/08/19 02:35:24;;;;;;;13.50;12.10;;;17.90;99.90;;;;;;4992159;28;20466;-62
2021/08/19 02:37:54;;;;;;;13.70;12.37;;;17.80;99.90;;;;;;4993764;28;20447;-62
2021/08/19 02:40:21;;;;;;;14.00;12.80;;;17.80;99.90;;;;;;5005571;28;20447;-62
2021/08/19 02:42:48;;;;;;;15.30;12.77;;;17.70;99.90;;;;;;4991857;28;21003;-63
2021/08/19 02:45:15;;;;;;;13.40;12.40;;;17.70;99.90;;;;;;4992067;28;20463;-62
2021/08/19 02:47:41;;;;;;;14.03;12.70;;;17.70;99.90;;;;;;4994419;28;20457;-62
2021/08/19 02:50:09;;;;;;;13.17;12.03;;;17.70;99.90;;;;;;5011680;28;20446;-63
2021/08/19 02:52:39;;;;;;;15.63;13.53;;;17.60;99.90;;;;;;5011516;28;20454;-61
2021/08/19 02:55:09;;;;;;;12.50;11.40;;;17.60;99.90;;;;;;5013408;28;20978;-64
2021/08/19 02:57:35;;;;;;;14.83;13.30;;;17.60;99.90;;;;;;5014068;28;20446;-60
2021/08/19 03:00:02;;;;;;;14.13;12.50;;;17.50;99.90;;;;;;4995857;28;20450;-62
2021/08/19 03:02:29;;;;;;;15.67;14.07;;;17.50;99.90;;;;;;4995559;28;20509;-63
2021/08/19 03:04:55;;;;;;;16.03;14.40;;;17.50;99.90;;;;;;4995672;28;20474;-62
2021/08/19 03:07:23;;;;;;;15.10;13.60;;;17.40;99.90;;;;;;4995762;28;20450;-63
2021/08/19 03:09:50;;;;;;;14.97;13.07;;;17.40;99.90;;;;;;4995972;28;20451;-62
2021/08/19 03:12:18;;;;;;;14.57;13.07;;;17.30;99.90;;;;;;4995454;28;20514;-63
2021/08/19 03:14:45;;;;;;;13.60;12.40;;;17.30;99.90;;;;;;4995489;28;20879;-61
2021/08/19 03:17:12;;;;;;;16.83;12.87;;;17.30;99.90;;;;;;4995564;28;20443;-62
2021/08/19 03:19:39;;;;;;;14.87;13.30;;;17.30;99.90;;;;;;5012693;28;20445;-61
2021/08/19 03:22:07;;;;;;;15.00;13.40;;;17.30;99.90;;;;;;5014817;28;20575;-64
2021/08/19 03:24:35;;;;;;;15.00;13.50;;;17.30;99.90;;;;;;5015068;28;20987;-62
2021/08/19 03:27:02;;;;;;;17.80;13.90;;;17.30;99.90;;;;;;5015200;28;20958;-63
2021/08/19 03:29:32;;;;;;;18.67;13.83;;;17.30;99.90;;;;;;4999010;28;20450;-61
2021/08/19 03:31:58;;;;;;;16.10;12.90;;;17.30;99.90;;;;;;4995106;28;20525;-61
2021/08/19 03:34:25;;;;;;;18.70;15.83;;;17.20;99.90;;;;;;4995223;28;20453;-62
2021/08/19 03:36:52;;;;;;;16.10;12.37;;;17.20;99.90;;;;;;4995309;28;20446;-62
2021/08/19 03:39:19;;;;;;;16.17;13.20;;;17.20;99.90;;;;;;5009293;28;20919;-62
2021/08/19 03:41:46;;;;;;;18.20;13.40;;;17.30;99.90;;;;;;5014138;28;20482;-62
2021/08/19 03:44:15;;;;;;;16.87;12.73;;;17.30;99.90;;;;;;5014797;28;20449;-60
2021/08/19 03:46:43;;;;;;;19.10;14.13;;;17.30;99.90;;;;;;5014656;28;20457;-59
2021/08/19 03:49:11;;;;;;;17.30;13.40;;;17.30;99.90;;;;;;5001339;28;20443;-62
2021/08/19 03:51:37;;;;;;;16.97;13.03;;;17.30;99.90;;;;;;4994743;28;20458;-59
2021/08/19 03:54:04;;;;;;;28.97;15.10;;;17.30;99.90;;;;;;4994930;28;20933;-60
2021/08/19 03:56:32;;;;;;;17.07;14.60;;;17.30;99.90;;;;;;4994800;28;20565;-61
2021/08/19 03:58:59;;;;;;;19.87;14.60;;;17.30;99.90;;;;;;4996696;28;20454;-61
2021/08/19 04:01:26;;;;;;;16.17;12.60;;;17.30;99.90;;;;;;4994675;28;20483;-61
2021/08/19 04:03:54;;;;;;;18.33;13.87;;;17.30;99.90;;;;;;4994759;28;20447;-60
2021/08/19 04:06:20;;;;;;;16.63;13.00;;;17.30;99.90;;;;;;4993363;28;20470;-60
2021/08/19 04:08:47;;;;;;;16.20;11.80;;;17.30;99.90;;;;;;5003825;28;20446;-60
2021/08/19 04:11:14;;;;;;;17.03;14.17;;;17.30;99.90;;;;;;5013999;28;20453;-59
2021/08/19 04:13:40;;;;;;;13.40;11.83;;;17.30;99.90;;;;;;5014108;28;20812;-62
2021/08/19 04:16:07;;;;;;;14.37;13.07;;;17.30;99.90;;;;;;5013875;28;20477;-60
2021/08/19 04:18:35;;;;;;;18.30;13.13;;;17.30;99.90;;;;;;5006423;28;20865;-61
2021/08/19 04:21:03;;;;;;;18.80;15.33;;;17.30;99.90;;;;;;4993947;28;20450;-59
2021/08/19 04:23:30;;;;;;;15.13;12.97;;;17.30;99.90;;;;;;4997623;28;20465;-60
2021/08/19 04:25:57;;;;;;;22.93;12.87;;;17.30;99.90;;;;;;5006465;28;20975;-62
2021/08/19 04:28:24;;;;;;;14.87;13.37;;;17.30;99.90;;;;;;5013884;28;20862;-60
2021/08/19 04:30:51;;;;;;;16.03;14.23;;;17.30;99.90;;;;;;5013651;28;20445;-60
2021/08/19 04:33:18;;;;;;;14.80;13.30;;;17.30;99.90;;;;;;5013553;28;20799;-60
2021/08/19 04:35:45;;;;;;;13.23;11.90;;;17.30;99.90;;;;;;5012945;28;20825;-59
2021/08/19 04:38:13;;;;;;;17.77;12.20;;;17.30;99.90;;;;;;5013715;28;20450;-61
2021/08/19 04:40:39;;;;;;;13.80;12.20;;;17.30;99.90;;;;;;5013541;28;20442;-58
2021/08/19 04:43:06;;;;;;;15.80;13.40;;;17.30;99.90;;;;;;5013356;28;20493;-60
2021/08/19 04:45:33;;;;;;;13.83;12.47;;;17.30;99.90;;;;;;5008216;28;20478;-60
2021/08/19 04:47:59;;;;;;;14.53;13.17;;;17.30;99.90;;;;;;4993823;28;20461;-61
2021/08/19 04:50:26;;;;;;;14.03;12.73;;;17.30;99.90;;;;;;4992702;28;20450;-60
2021/08/19 04:52:53;;;;;;;16.70;12.97;;;17.30;99.90;;;;;;4992239;28;20450;-60
2021/08/19 04:55:21;;;;;;;14.43;13.13;;;17.30;99.90;;;;;;4997115;28;20809;-61
2021/08/19 04:57:48;;;;;;;13.13;11.77;;;17.40;99.90;;;;;;4992641;28;20956;-61
2021/08/19 05:00:15;;;;;;;13.53;12.20;;;17.30;99.90;;;;;;4992464;28;20488;-60
2021/08/19 05:02:41;;;;;;;13.83;12.53;;;17.40;99.90;;;;;;4991497;28;20483;-60
2021/08/19 05:05:08;;;;;;;13.33;12.23;;;17.40;99.90;;;;;;4991952;28;20482;-59
2021/08/19 05:07:35;;;;;;;14.90;13.53;;;17.40;99.90;;;;;;4992381;28;20447;-58
2021/08/19 05:10:02;;;;;;;13.67;12.43;;;17.40;99.90;;;;;;4992231;28;20962;-61
2021/08/19 05:12:30;;;;;;;14.43;12.97;;;17.50;99.90;;;;;;4992133;28;20442;-62
2021/08/19 05:14:57;;;;;;;13.50;12.37;;;17.40;99.90;;;;;;4991912;28;20481;-60
2021/08/19 05:17:23;;;;;;;12.63;11.57;;;17.50;99.90;;;;;;4991853;28;20806;-59
2021/08/19 05:19:50;;;;;;;14.33;13.13;;;17.50;99.90;;;;;;4992954;28;20447;-60
2021/08/19 05:22:17;;;;;;;14.30;13.20;;;17.50;99.90;;;;;;4994019;28;20837;-63
2021/08/19 05:24:43;;;;;;;14.23;13.23;;;17.50;99.90;;;;;;4993649;28;20837;-63
2021/08/19 05:27:10;;;;;;;15.93;14.53;;;17.50;99.90;;;;;;4993457;28;20447;-63
2021/08/19 05:29:44;;;;;;;13.90;12.80;;;17.50;99.90;;;;;;4993398;28;20454;-65
2021/08/19 05:32:11;;;;;;;12.60;11.50;;;17.50;99.90;;;;;;4992694;28;20437;-59
2021/08/19 05:34:38;;;;;;;13.40;12.40;;;17.60;99.90;;;;;;4992794;28;20466;-58
2021/08/19 05:37:04;;;;;;;13.63;12.50;;;17.50;99.90;;;;;;4992913;28;20462;-59
2021/08/19 05:39:31;;;;;;;14.43;13.33;;;17.60;99.90;;;;;;4992917;28;20446;-62
2021/08/19 05:41:58;;;;;;;13.43;12.23;;;17.60;99.90;;;;;;4992428;28;20494;-61
2021/08/19 05:44:24;;;;;;;13.50;12.40;;;17.60;99.90;;;;;;4992685;28;20458;-61
2021/08/19 05:46:52;;;;;;;14.07;12.87;;;17.60;99.90;;;;;;4992701;28;20447;-59
2021/08/19 05:49:19;;;;;;;14.70;13.40;;;17.60;99.90;;;;;;4992724;28;20450;-61
2021/08/19 05:51:46;;;;;;;13.57;11.77;;;17.60;99.90;;;;;;4992450;28;20814;-62
2021/08/19 05:54:12;;;;;;;13.97;13.07;;;17.70;99.90;;;;;;4992452;28;20819;-60
2021/08/19 05:56:39;;;;;;;14.53;13.10;;;17.70;99.90;;;;;;4992696;28;20450;-60
2021/08/19 05:59:06;;;;;;;14.40;13.30;;;17.70;99.90;;;;;;4992580;28;20474;-61
2021/08/19 06:01:32;;;;;;;13.83;12.60;;;17.70;99.90;;;;;;4992216;28;20450;-61
2021/08/19 06:04:00;;;;;;;15.73;14.30;;;17.80;99.90;;;;;;4992455;28;20489;-60
2021/08/19 06:06:27;;;;;;;14.33;13.23;;;17.80;99.90;;;;;;4992341;28;20462;-60
2021/08/19 06:08:55;;;;;;;15.00;13.70;;;17.90;99.90;;;;;;4992539;28;20453;-59
2021/08/19 06:11:21;;;;;;;14.33;13.23;;;17.90;99.90;;;;;;4992170;28;20450;-60
2021/08/19 06:13:48;;;;;;;13.80;12.80;;;17.90;99.90;;;;;;4992250;28;20443;-61
2021/08/19 06:16:15;;;;;;;13.90;12.90;;;17.90;99.90;;;;;;4992131;28;20972;-60
2021/08/19 06:18:41;;;;;;;14.87;13.67;;;18.00;99.90;;;;;;4992232;28;20955;-60
2021/08/19 06:21:10;;;;;;;14.77;13.67;;;18.00;99.90;;;;;;4992105;28;20818;-60
2021/08/19 06:23:37;;;;;;;16.60;15.40;;;18.00;99.90;;;;;;4991996;28;20901;-60
2021/08/19 06:26:03;;;;;;;15.93;14.73;;;18.10;99.90;;;;;;4992240;28;20467;-61
2021/08/19 06:28:30;;;;;;;19.60;16.10;;;18.20;99.90;;;;;;4991641;28;20454;-60
2021/08/19 06:30:57;;;;;;;16.20;15.00;;;18.20;99.90;;;;;;4991506;28;20443;-60
2021/08/19 06:33:24;;;;;;;15.60;14.40;;;18.30;99.90;;;;;;4992033;28;20446;-61
2021/08/19 06:35:51;;;;;;;16.30;15.17;;;18.40;99.90;;;;;;4991960;28;20489;-59
2021/08/19 06:38:19;;;;;;;15.00;13.90;;;18.40;99.90;;;;;;4991993;28;20451;-61
2021/08/19 06:40:46;;;;;;;16.87;15.57;;;18.40;99.90;;;;;;4992091;28;20945;-61
2021/08/19 06:43:12;;;;;;;18.77;17.37;;;18.50;99.90;;;;;;4991581;28;20487;-62
2021/08/19 06:45:39;;;;;;;17.13;15.87;;;18.60;99.90;;;;;;4991963;28;20475;-60
2021/08/19 06:48:06;;;;;;;17.70;16.30;;;18.60;99.90;;;;;;4992092;28;20447;-61
2021/08/19 06:50:33;;;;;;;18.83;17.40;;;18.60;99.90;;;;;;4991878;28;20451;-61
2021/08/19 06:52:59;;;;;;;18.40;17.10;;;18.60;99.90;;;;;;4991693;28;20439;-61
2021/08/19 06:55:29;;;;;;;19.37;18.27;;;18.70;99.90;;;;;;4991974;28;20506;-60
2021/08/19 06:57:55;;;;;;;19.50;18.20;;;18.70;99.90;;;;;;4991901;28;20457;-60
2021/08/19 07:00:22;;;;;;;19.30;17.97;;;18.80;99.90;;;;;;4991907;28;20451;-61
2021/08/19 07:02:49;;;;;;;19.30;17.90;;;18.80;99.90;;;;;;4991640;28;20482;-61
2021/08/19 07:05:16;;;;;;;19.30;18.03;;;18.90;99.90;;;;;;4991778;28;20488;-61
2021/08/19 07:07:42;;;;;;;20.20;18.70;;;18.90;99.90;;;;;;4991847;28;20442;-60
2021/08/19 07:10:10;;;;;;;20.00;18.60;;;18.90;99.90;;;;;;4991833;28;20451;-60
2021/08/19 07:12:38;;;;;;;19.73;18.17;;;18.90;99.90;;;;;;4991418;28;20483;-60
2021/08/19 07:15:07;;;;;;;20.00;18.70;;;19.00;99.90;;;;;;4991530;28;20490;-60
2021/08/19 07:17:34;;;;;;;20.87;19.30;;;19.00;99.90;;;;;;4991700;28;20457;-60
2021/08/19 07:20:01;;;;;;;19.17;17.87;;;19.00;99.90;;;;;;4991744;28;20458;-58
2021/08/19 07:22:27;;;;;;;20.73;19.23;;;19.00;99.90;;;;;;4991350;28;20529;-61
2021/08/19 07:24:54;;;;;;;20.80;19.50;;;19.00;99.90;;;;;;4991491;28;20454;-60
2021/08/19 07:27:21;;;;;;;19.23;18.00;;;19.00;99.90;;;;;;4991676;28;20454;-60
2021/08/19 07:29:49;;;;;;;20.57;19.23;;;19.00;99.90;;;;;;4991671;28;20446;-62
2021/08/19 07:32:19;;;;;;;19.30;18.03;;;19.00;99.90;;;;;;4991503;28;20929;-61
2021/08/19 07:34:46;;;;;;;20.70;18.83;;;19.00;99.90;;;;;;4991634;28;20463;-62
2021/08/19 07:37:12;;;;;;;19.00;17.73;;;19.10;99.90;;;;;;4991575;28;20454;-60
2021/08/19 07:39:39;;;;;;;19.73;18.10;;;19.20;99.90;;;;;;4991869;28;20451;-59
2021/08/19 07:42:06;;;;;;;18.47;17.27;;;19.20;99.90;;;;;;4994451;28;20442;-60
2021/08/19 07:44:33;;;;;;;20.53;19.03;;;19.10;99.90;;;;;;4994883;28;20469;-61
2021/08/19 07:47:01;;;;;;;18.67;17.17;;;19.10;99.90;;;;;;4994931;28;20442;-57
2021/08/19 07:49:27;;;;;;;20.40;19.17;;;19.10;99.90;;;;;;4994898;28;20944;-60
2021/08/19 07:51:54;;;;;;;19.17;17.87;;;19.20;99.90;;;;;;4994609;28;20816;-60
2021/08/19 07:54:21;;;;;;;20.17;18.87;;;19.20;99.90;;;;;;4994685;28;20525;-61
2021/08/19 07:56:47;;;;;;;19.87;18.53;;;19.30;99.90;;;;;;4994620;28;20443;-60
2021/08/19 07:59:14;;;;;;;21.20;19.80;;;19.30;99.90;;;;;;4994631;28;20454;-60
2021/08/19 08:01:41;;;;;;;20.00;18.80;;;19.30;99.90;;;;;;4994393;28;20975;-60
2021/08/19 08:04:09;;;;;;;21.83;20.00;;;19.40;99.90;;;;;;4994648;28;20487;-61
2021/08/19 08:06:36;;;;;;;22.80;20.50;;;19.30;99.90;;;;;;4994679;28;20493;-60
2021/08/19 08:09:03;;;;;;;22.80;21.00;;;19.20;99.90;;;;;;4994484;28;20446;-62
2021/08/19 08:11:30;;;;;;;21.03;19.63;;;19.00;99.90;;;;;;4994432;28;20814;-60
2021/08/19 08:13:57;;;;;;;21.30;20.00;;;18.90;99.90;;;;;;4994436;28;20469;-59
2021/08/19 08:16:24;;;;;;;25.07;23.13;;;19.00;99.90;;;;;;4994390;28;20478;-62
2021/08/19 08:18:50;;;;;;;23.33;21.80;;;19.00;99.90;;;;;;4994401;28;20450;-61
2021/08/19 08:21:18;;;;;;;23.23;21.57;;;19.10;99.90;;;;;;4994144;28;20451;-60
2021/08/19 08:23:45;;;;;;;23.53;21.83;;;19.10;99.90;;;;;;4994145;28;20847;-60
2021/08/19 08:26:12;;;;;;;24.50;22.70;;;19.10;99.90;;;;;;4994104;28;20471;-61
2021/08/19 08:28:39;;;;;;;23.20;21.70;;;19.00;99.90;;;;;;4994287;28;20450;-61
2021/08/19 08:31:07;;;;;;;22.50;21.20;;;19.10;99.90;;;;;;4993992;28;20455;-61
2021/08/19 08:33:35;;;;;;;23.23;21.73;;;19.30;99.90;;;;;;4994024;28;20858;-61
2021/08/19 08:36:02;;;;;;;24.37;22.67;;;19.40;99.90;;;;;;4994112;28;20477;-62
2021/08/19 08:38:31;;;;;;;22.93;21.53;;;19.40;99.90;;;;;;4994019;28;20464;-62
2021/08/19 08:40:57;;;;;;;24.73;22.80;;;19.50;99.90;;;;;;4993798;28;20470;-59
2021/08/19 08:43:25;;;;;;;25.13;23.43;;;19.40;99.90;;;;;;4993804;28;20486;-59
2021/08/19 08:45:54;;;;;;;23.27;21.90;;;19.40;99.90;;;;;;4993769;28;20597;-59
2021/08/19 08:48:23;;;;;;;25.90;23.60;;;19.40;99.90;;;;;;4993684;28;20513;-62
2021/08/19 08:50:52;;;;;;;25.20;23.43;;;19.50;99.90;;;;;;4993808;28;20443;-61
2021/08/19 08:53:19;;;;;;;24.40;23.00;;;19.40;99.90;;;;;;4992854;28;20558;-62
2021/08/19 08:55:47;;;;;;;25.87;23.97;;;19.40;99.90;;;;;;4993638;28;20474;-60
2021/08/19 08:58:15;;;;;;;25.60;23.70;;;19.50;99.90;;;;;;4993638;28;20447;-59
2021/08/19 09:00:43;;;;;;;23.90;22.40;;;19.60;99.90;;;;;;4993571;28;20450;-61
2021/08/19 09:03:10;;;;;;;24.57;23.13;;;19.50;99.90;;;;;;4993257;28;20487;-60
2021/08/19 09:05:39;;;;;;;27.20;25.17;;;19.60;99.90;;;;;;4993327;28;20848;-61
2021/08/19 09:08:07;;;;;;;26.80;25.00;;;19.70;99.90;;;;;;4993515;28;20451;-61
2021/08/19 09:10:34;;;;;;;25.47;23.77;;;19.70;99.90;;;;;;4993337;28;20485;-62
2021/08/19 09:13:08;;;;;;;26.17;24.40;;;20.00;99.90;;;;;;4993097;28;20450;-61
2021/08/19 09:15:35;;;;;;;23.27;21.77;;;20.40;99.90;;;;;;4993085;28;20473;-60
2021/08/19 09:18:03;;;;;;;24.10;22.60;;;20.90;99.90;;;;;;4993271;28;20486;-57
2021/08/19 09:20:34;;;;;;;24.27;22.87;;;21.50;99.90;;;;;;4993233;28;20943;-59
2021/08/19 09:23:03;;;;;;;23.80;22.27;;;22.00;99.90;;;;;;4992843;28;20483;-63
2021/08/19 09:25:32;;;;;;;22.07;20.77;;;22.00;99.90;;;;;;4993191;28;20541;-62
2021/08/19 09:28:17;;;;;;;23.97;22.63;;;22.30;99.90;;;;;;4993088;28;20450;-60
2021/08/19 09:30:47;;;;;;;23.30;22.10;;;22.40;99.90;;;;;;4993096;28;20443;-61
2021/08/19 09:33:15;;;;;;;23.03;21.80;;;22.40;99.90;;;;;;4992749;28;20450;-59
2021/08/19 09:35:42;;;;;;;22.83;21.57;;;22.40;99.90;;;;;;4992800;28;20474;-60
2021/08/19 09:38:11;;;;;;;23.30;22.00;;;22.50;99.90;;;;;;4993054;28;20665;-60
2021/08/19 09:40:38;;;;;;;22.23;21.03;;;22.60;99.90;;;;;;4992732;28;20458;-61
2021/08/19 09:43:05;;;;;;;22.73;21.57;;;22.40;99.90;;;;;;4992556;28;20447;-61
2021/08/19 09:45:44;;;;;;;22.20;20.90;;;22.40;99.90;;;;;;4992693;28;20467;-61
2021/08/19 09:48:13;;;;;;;22.10;21.10;;;22.50;99.90;;;;;;4992765;28;20443;-60
2021/08/19 09:50:40;;;;;;;21.73;20.53;;;22.60;99.90;;;;;;4992740;28;20472;-62
2021/08/19 09:53:23;;;;;;;21.47;20.37;;;22.70;99.90;;;;;;4992460;28;20443;-58
2021/08/19 09:55:50;;;;;;;22.40;21.30;;;22.50;99.90;;;;;;4992571;28;20467;-60
2021/08/19 09:58:31;;;;;;;23.20;22.10;;;22.80;99.90;;;;;;4992601;28;20808;-61
2021/08/19 10:00:59;;;;;;;23.03;21.77;;;22.90;99.90;;;;;;4992329;28;20449;-60
2021/08/19 10:03:27;;;;;;;23.33;22.10;;;23.00;99.90;;;;;;4992295;28;20486;-62
2021/08/19 10:05:55;;;;;;;24.17;22.80;;;22.80;99.90;;;;;;4992472;28;21051;-61
2021/08/19 10:08:22;;;;;;;22.87;21.67;;;22.30;99.90;;;;;;4992373;28;20470;-57
2021/08/19 10:10:53;;;;;;;22.77;21.67;;;22.30;99.90;;;;;;4992343;28;21008;-60
2021/08/19 10:13:20;;;;;;;21.73;20.73;;;22.20;99.90;;;;;;4992252;28;20534;-59
2021/08/19 10:15:48;;;;;;;21.60;20.60;;;22.00;99.90;;;;;;4992178;28;20486;-59
2021/08/19 10:18:21;;;;;;;21.37;20.30;;;21.70;99.90;;;;;;4992293;28;20505;-60
2021/08/19 10:20:56;;;;;;;21.47;20.47;;;21.30;99.90;;;;;;4992363;28;20450;-58
2021/08/19 10:23:23;;;;;;;21.87;20.87;;;21.20;99.90;;;;;;4992060;28;20478;-59
2021/08/19 10:26:05;;;;;;;22.70;21.27;;;21.00;99.90;;;;;;4992077;28;20471;-59
2021/08/19 10:28:52;;;;;;;21.23;20.17;;;20.80;99.90;;;;;;4992155;28;20449;-61
2021/08/19 10:31:49;;;;;;;21.53;20.40;;;20.70;99.90;;;;;;4992090;28;20450;-60
2021/08/19 10:34:19;;;;;;;21.57;20.27;;;20.70;99.90;;;;;;4992062;28;20449;-61
2021/08/19 10:36:54;;;;;;;20.90;19.90;;;20.80;99.90;;;;;;4992073;28;20455;-61
2021/08/19 10:39:40;;;;;;;21.50;20.30;;;20.80;99.90;;;;;;4992075;28;20442;-60
2021/08/19 10:42:12;;;;;;;20.80;19.73;;;20.80;99.90;;;;;;4991784;28;20809;-59
2021/08/19 10:44:44;;;;;;;21.57;20.47;;;20.90;99.90;;;;;;4991807;28;20493;-59
2021/08/19 10:47:31;;;;;;;20.90;19.80;;;20.80;99.90;;;;;;4992027;28;20538;-61
2021/08/19 10:50:23;;;;;;;21.00;20.00;;;21.00;99.90;;;;;;4992128;28;20450;-61
2021/08/19 10:52:49;;;;;;;21.30;20.30;;;21.00;99.90;;;;;;4991662;28;20443;-61
2021/08/19 10:55:19;;;;;;;21.63;20.33;;;21.00;99.90;;;;;;4991810;28;20473;-59
2021/08/19 10:57:50;;;;;;;21.27;19.93;;;20.90;99.90;;;;;;4991927;28;20458;-60
2021/08/19 11:00:18;;;;;;;20.97;19.77;;;20.70;99.90;;;;;;4992017;28;20964;-59
2021/08/19 11:02:45;;;;;;;21.20;20.13;;;20.80;99.90;;;;;;4991659;28;20455;-60
2021/08/19 11:05:15;;;;;;;19.83;19.03;;;20.80;99.90;;;;;;4991700;28;20487;-61
2021/08/19 11:07:47;;;;;;;20.67;19.57;;;20.80;99.90;;;;;;4991744;28;20454;-60
2021/08/19 11:10:21;;;;;;;21.20;19.70;;;20.80;99.90;;;;;;4991773;28;20488;-62
2021/08/19 11:12:48;;;;;;;20.87;19.87;;;20.70;99.90;;;;;;4991623;28;20505;-61
2021/08/19 11:15:15;;;;;;;21.20;20.10;;;20.70;99.90;;;;;;4991920;28;20474;-60
2021/08/19 11:17:50;;;;;;;21.10;20.10;;;21.00;99.90;;;;;;4995434;28;20442;-60
2021/08/19 11:20:28;;;;;;;19.67;18.87;;;21.20;99.90;;;;;;4996143;28;20489;-60
2021/08/19 11:23:06;;;;;;;19.50;18.60;;;21.40;99.90;;;;;;4995253;28;20483;-59
2021/08/19 11:25:34;;;;;;;20.10;19.10;;;21.60;99.90;;;;;;4995284;28;20485;-61
2021/08/19 11:28:11;;;;;;;21.47;20.30;;;21.50;99.90;;;;;;4995245;28;20451;-60
2021/08/19 11:30:39;;;;;;;20.67;19.67;;;21.40;99.90;;;;;;4995389;28;20829;-61
2021/08/19 11:33:14;;;;;;;20.40;19.50;;;21.40;99.90;;;;;;4995083;28;20461;-60
2021/08/19 11:35:44;;;;;;;22.07;20.77;;;21.20;99.90;;;;;;4995147;28;20526;-59
2021/08/19 11:38:12;;;;;;;21.67;20.47;;;21.10;99.90;;;;;;4995208;28;20758;-60
2021/08/19 11:40:40;;;;;;;21.77;20.60;;;20.90;99.90;;;;;;4995039;28;20836;-62
2021/08/19 11:43:21;;;;;;;20.43;19.43;;;20.80;99.90;;;;;;4994844;28;20451;-59
2021/08/19 11:45:48;;;;;;;21.73;20.43;;;20.60;99.90;;;;;;4994892;28;20859;-61
2021/08/19 11:48:18;;;;;;;20.80;19.90;;;20.40;99.90;;;;;;4994920;28;20455;-61
2021/08/19 11:50:52;;;;;;;21.27;20.20;;;20.30;99.90;;;;;;4994816;28;20949;-60
2021/08/19 11:53:19;;;;;;;21.90;20.70;;;20.40;99.90;;;;;;4994702;28;20498;-61
2021/08/19 11:55:45;;;;;;;21.07;19.70;;;20.90;99.90;;;;;;4994740;28;20462;-60
2021/08/19 11:58:19;;;;;;;22.07;20.77;;;21.10;99.90;;;;;;4994766;28;20474;-60
2021/08/19 12:00:57;;;;;;;23.00;21.50;;;21.30;99.90;;;;;;4994809;28;20450;-62
2021/08/19 12:03:24;;;;;;;21.23;20.23;;;21.40;99.90;;;;;;4994655;28;20454;-60
2021/08/19 12:06:03;;;;;;;20.87;19.87;;;21.50;99.90;;;;;;4994422;28;20498;-61
2021/08/19 12:08:30;;;;;;;22.43;21.10;;;21.30;99.90;;;;;;4994585;28;20447;-60
2021/08/19 12:10:59;;;;;;;22.27;20.83;;;21.30;99.90;;;;;;4994372;28;21028;-62
2021/08/19 12:13:28;;;;;;;20.73;19.63;;;21.30;99.90;;;;;;4994581;28;20451;-61
2021/08/19 12:15:55;;;;;;;21.23;20.03;;;21.40;99.90;;;;;;4994244;28;20474;-61
2021/08/19 12:18:23;;;;;;;21.50;20.43;;;21.60;99.90;;;;;;4994392;28;20443;-61
2021/08/19 12:20:51;;;;;;;21.30;20.20;;;21.90;99.90;;;;;;4994327;28;20531;-60
2021/08/19 12:23:21;;;;;;;21.37;20.17;;;22.30;99.90;;;;;;4994131;28;20458;-62
2021/08/19 12:25:48;;;;;;;20.67;19.60;;;23.10;99.90;;;;;;4994152;28;20494;-61
2021/08/19 12:28:16;;;;;;;21.23;20.03;;;24.20;99.90;;;;;;4993035;28;20822;-61
2021/08/19 12:30:57;;;;;;;21.60;20.50;;;25.00;99.90;;;;;;4994140;28;20922;-61
2021/08/19 12:33:35;;;;;;;22.00;21.00;;;24.90;99.90;;;;;;4994121;28;20450;-60